Time;durP1;ratioP1;P1;durP2;ratioP2;P2;SDS_P1;SDS_P2;PMS_P1;PMS_P2;Temp;Humidity;BMP_temperature;BMP_pressure;BME280_temperature;BME280_humidity;BME280_pressure;Samples;Min_cycle;Max_cycle;Signal;HPM_P1;HPM_P2
2023/12/12 00:00:32;;;;;;;3.55;1.80;;;19.20;99.90;;;;;;4591786;19;20442;-77
2023/12/12 00:02:27;;;;;;;2.75;1.77;;;19.20;99.90;;;;;;4592936;19;20035;-77
2023/12/12 00:04:02;;;;;;;2.83;1.85;;;19.20;99.90;;;;;;4591721;19;20019;-77
2023/12/12 00:05:36;;;;;;;3.67;2.03;;;19.20;99.90;;;;;;4591862;19;20044;-77
2023/12/12 00:07:10;;;;;;;3.28;2.33;;;19.20;99.90;;;;;;4593168;19;20354;-77
2023/12/12 00:08:48;;;;;;;3.38;2.20;;;19.20;99.90;;;;;;4593114;19;20011;-77
2023/12/12 00:10:22;;;;;;;3.03;1.90;;;19.20;99.90;;;;;;4592996;19;19998;-77
2023/12/12 00:11:57;;;;;;;3.45;1.73;;;19.20;99.90;;;;;;4592008;19;19998;-77
2023/12/12 00:13:32;;;;;;;2.78;1.63;;;19.20;99.90;;;;;;4592992;19;20007;-77
2023/12/12 00:15:07;;;;;;;3.38;1.70;;;19.20;99.90;;;;;;4592991;19;20305;-77
2023/12/12 00:16:40;;;;;;;2.80;1.88;;;19.20;99.90;;;;;;4593124;19;20002;-77
2023/12/12 00:18:16;;;;;;;2.95;1.88;;;19.20;99.90;;;;;;4592875;19;20078;-77
2023/12/12 00:19:50;;;;;;;2.40;1.50;;;19.20;99.90;;;;;;4592881;19;20009;-77
2023/12/12 00:21:24;;;;;;;3.15;2.08;;;19.20;99.90;;;;;;4593025;19;20006;-77
2023/12/12 00:23:00;;;;;;;2.17;1.63;;;19.20;99.90;;;;;;4591434;19;20073;-77
2023/12/12 00:24:35;;;;;;;4.43;2.55;;;19.20;99.90;;;;;;4592400;19;20018;-77
2023/12/12 00:26:12;;;;;;;2.15;1.63;;;19.20;99.90;;;;;;4591742;19;20014;-77
2023/12/12 00:27:47;;;;;;;3.60;2.17;;;19.20;99.90;;;;;;4592788;19;20022;-77
2023/12/12 00:29:22;;;;;;;2.67;1.88;;;19.20;99.90;;;;;;4592649;19;20327;-77
2023/12/12 00:30:56;;;;;;;2.50;1.75;;;19.20;99.90;;;;;;4592690;19;20006;-77
2023/12/12 00:32:32;;;;;;;2.53;1.67;;;19.20;99.90;;;;;;4592659;19;20006;-77
2023/12/12 00:34:07;;;;;;;2.22;1.58;;;19.20;99.90;;;;;;4592527;19;20066;-77
2023/12/12 00:35:42;;;;;;;3.17;2.10;;;19.20;99.90;;;;;;4591969;19;20006;-77
2023/12/12 00:37:17;;;;;;;3.30;1.95;;;19.20;99.90;;;;;;4592221;19;20070;-77
2023/12/12 00:38:52;;;;;;;3.33;1.73;;;19.20;99.90;;;;;;4589348;19;20010;-77
2023/12/12 00:40:26;;;;;;;2.47;1.65;;;19.10;99.90;;;;;;4592277;19;20303;-77
2023/12/12 00:42:02;;;;;;;3.53;2.17;;;19.20;99.90;;;;;;4592701;19;20028;-77
2023/12/12 00:43:37;;;;;;;3.63;2.20;;;19.20;99.90;;;;;;4592661;19;20296;-77
2023/12/12 00:45:13;;;;;;;2.92;2.20;;;19.20;99.90;;;;;;4590656;19;20456;-77
2023/12/12 00:46:48;;;;;;;5.22;2.50;;;19.20;99.90;;;;;;4591003;19;20006;-77
2023/12/12 00:48:22;;;;;;;3.85;2.63;;;19.10;99.90;;;;;;4592256;19;20317;-77
2023/12/12 00:49:56;;;;;;;2.90;2.05;;;19.10;99.90;;;;;;4592302;19;20021;-77
2023/12/12 00:51:32;;;;;;;4.22;2.42;;;19.10;99.90;;;;;;4591768;19;20089;-77
2023/12/12 00:53:07;;;;;;;3.60;2.13;;;19.10;99.90;;;;;;4590780;19;20003;-77
2023/12/12 00:54:41;;;;;;;3.85;2.65;;;19.10;99.90;;;;;;4591843;19;19998;-78
2023/12/12 00:56:16;;;;;;;3.72;2.47;;;19.10;99.90;;;;;;4591246;19;20002;-77
2023/12/12 00:57:50;;;;;;;3.47;2.38;;;19.00;99.90;;;;;;4590853;19;20085;-77
2023/12/12 00:59:25;;;;;;;3.15;2.08;;;19.00;99.90;;;;;;4592065;19;20009;-77
2023/12/12 01:18:47;;;;;;;4.28;2.75;;;18.70;99.90;;;;;;4590933;19;20011;-77
2023/12/12 01:20:23;;;;;;;3.60;2.20;;;18.70;99.90;;;;;;4591718;19;20006;-77
2023/12/12 01:21:58;;;;;;;4.07;2.85;;;18.70;99.90;;;;;;4591789;19;19998;-78
2023/12/12 01:23:53;;;;;;;4.40;2.88;;;18.70;99.90;;;;;;4592043;19;19998;-77
2023/12/12 01:25:30;;;;;;;3.78;2.28;;;18.70;99.90;;;;;;4591696;19;20006;-78
2023/12/12 01:27:05;;;;;;;3.50;2.40;;;18.70;99.90;;;;;;4591640;19;20011;-77
2023/12/12 01:28:39;;;;;;;4.68;2.70;;;18.60;99.90;;;;;;4590453;19;20024;-77
2023/12/12 01:30:14;;;;;;;3.55;2.45;;;18.60;99.90;;;;;;4591640;19;20011;-77
2023/12/12 01:31:49;;;;;;;4.25;2.78;;;18.60;99.90;;;;;;4590721;19;20009;-77
2023/12/12 01:33:23;;;;;;;6.10;2.63;;;18.60;99.90;;;;;;4591519;19;20020;-77
2023/12/12 01:34:59;;;;;;;3.38;2.47;;;18.60;99.90;;;;;;4591660;19;20007;-77
2023/12/12 01:36:34;;;;;;;4.03;2.70;;;18.60;99.90;;;;;;4591517;19;20006;-77
2023/12/12 01:38:09;;;;;;;4.20;2.83;;;18.60;99.90;;;;;;4590867;19;20021;-77
2023/12/12 01:39:44;;;;;;;4.78;3.08;;;18.50;99.90;;;;;;4591568;19;20031;-77
2023/12/12 01:41:18;;;;;;;4.35;3.17;;;18.50;99.90;;;;;;4591466;19;20005;-77
2023/12/12 01:43:03;;;;;;;3.95;2.63;;;18.50;99.90;;;;;;4591726;19;20006;-77
2023/12/12 01:44:38;;;;;;;3.72;2.42;;;18.50;99.90;;;;;;4590345;19;20010;-76
2023/12/12 01:46:14;;;;;;;3.78;2.65;;;18.50;99.90;;;;;;4589828;19;20011;-77
2023/12/12 01:47:48;;;;;;;3.47;2.80;;;18.50;99.90;;;;;;4589329;19;20082;-77
2023/12/12 01:49:24;;;;;;;3.40;2.38;;;18.50;99.90;;;;;;4591172;19;20010;-77
2023/12/12 01:50:58;;;;;;;3.47;2.30;;;18.50;99.90;;;;;;4595361;19;20306;-77
2023/12/12 01:52:32;;;;;;;4.05;3.00;;;18.50;99.90;;;;;;4594581;19;20450;-76
2023/12/12 01:54:08;;;;;;;3.60;2.65;;;18.40;99.90;;;;;;4595885;19;20014;-76
2023/12/12 01:55:43;;;;;;;4.43;3.15;;;18.40;99.90;;;;;;4594541;19;19999;-77
2023/12/12 01:57:18;;;;;;;3.78;2.80;;;18.40;99.90;;;;;;4595226;19;20013;-77
2023/12/12 01:58:54;;;;;;;3.45;2.58;;;18.40;99.90;;;;;;4595813;19;20010;-77
2023/12/12 02:00:28;;;;;;;5.22;2.95;;;18.40;99.90;;;;;;4594670;19;20006;-76
2023/12/12 02:02:02;;;;;;;4.38;2.85;;;18.40;99.90;;;;;;4594337;19;20009;-77
2023/12/12 02:03:37;;;;;;;4.70;3.05;;;18.40;99.90;;;;;;4594400;19;20023;-77
2023/12/12 02:05:11;;;;;;;3.97;2.53;;;18.30;99.90;;;;;;4594305;19;20002;-77
2023/12/12 02:06:46;;;;;;;4.38;3.20;;;18.30;99.90;;;;;;4594231;19;20083;-76
2023/12/12 02:08:23;;;;;;;5.30;2.63;;;18.30;99.90;;;;;;4593904;19;20017;-77
2023/12/12 02:09:57;;;;;;;4.07;2.85;;;18.30;99.90;;;;;;4595816;19;19998;-77
2023/12/12 02:11:32;;;;;;;3.28;2.42;;;18.30;99.90;;;;;;4593380;19;20061;-76
2023/12/12 02:13:08;;;;;;;3.95;2.75;;;18.30;99.90;;;;;;4595913;19;20465;-76
2023/12/12 02:14:43;;;;;;;3.92;2.65;;;18.30;99.90;;;;;;4595714;19;19998;-77
2023/12/12 02:16:17;;;;;;;3.97;2.90;;;18.30;99.90;;;;;;4595672;19;20435;-77
2023/12/12 02:17:53;;;;;;;4.35;3.03;;;18.30;99.90;;;;;;4592993;19;20438;-77
2023/12/12 02:19:28;;;;;;;4.60;3.22;;;18.30;99.90;;;;;;4594999;19;20036;-77
2023/12/12 02:21:03;;;;;;;4.18;2.65;;;18.30;99.90;;;;;;4594162;19;20029;-77
2023/12/12 02:22:38;;;;;;;3.60;2.22;;;18.20;99.90;;;;;;4595053;19;20316;-76
2023/12/12 02:24:14;;;;;;;3.95;2.63;;;18.20;99.90;;;;;;4595108;19;20100;-77
2023/12/12 02:25:48;;;;;;;4.00;2.90;;;18.20;99.90;;;;;;4595215;19;20002;-77
2023/12/12 02:27:24;;;;;;;4.97;3.22;;;18.20;99.90;;;;;;4594953;19;20006;-77
2023/12/12 02:28:58;;;;;;;4.72;2.75;;;18.20;99.90;;;;;;4595199;19;20002;-77
2023/12/12 02:30:32;;;;;;;3.83;2.67;;;18.20;99.90;;;;;;4595114;19;19995;-77
2023/12/12 02:32:07;;;;;;;3.90;2.22;;;18.20;99.90;;;;;;4593836;19;20003;-77
2023/12/12 02:33:41;;;;;;;3.58;2.80;;;18.20;99.90;;;;;;4595000;19;19998;-77
2023/12/12 02:35:16;;;;;;;4.20;2.72;;;18.20;99.90;;;;;;4595283;19;20449;-77
2023/12/12 02:36:52;;;;;;;4.75;2.72;;;18.20;99.90;;;;;;4595086;19;20013;-77
2023/12/12 02:38:26;;;;;;;4.97;2.53;;;18.10;99.90;;;;;;4593879;19;20019;-77
2023/12/12 02:40:00;;;;;;;3.60;2.50;;;18.10;99.90;;;;;;4594857;19;20514;-77
2023/12/12 02:41:35;;;;;;;5.15;2.92;;;18.10;99.90;;;;;;4595397;19;20304;-77
2023/12/12 02:43:09;;;;;;;3.58;2.55;;;18.10;99.90;;;;;;4594799;19;20003;-77
2023/12/12 02:44:43;;;;;;;3.95;2.67;;;18.10;99.90;;;;;;4594750;19;20023;-77
2023/12/12 02:46:19;;;;;;;3.95;2.70;;;18.10;99.90;;;;;;4595027;19;20014;-77
2023/12/12 02:47:53;;;;;;;3.75;2.60;;;18.10;99.90;;;;;;4594013;19;20005;-76
2023/12/12 02:49:28;;;;;;;3.95;2.58;;;18.10;99.90;;;;;;4594947;19;20019;-76
2023/12/12 02:51:04;;;;;;;5.72;2.75;;;18.10;99.90;;;;;;4594574;19;20003;-77
2023/12/12 02:52:39;;;;;;;4.35;2.80;;;18.10;99.90;;;;;;4594632;19;19999;-77
2023/12/12 02:54:13;;;;;;;4.25;2.83;;;18.10;99.90;;;;;;4594939;19;20427;-77
2023/12/12 02:55:48;;;;;;;3.90;2.67;;;18.00;99.90;;;;;;4594636;19;20007;-77
2023/12/12 02:57:23;;;;;;;4.05;3.03;;;18.00;99.90;;;;;;4594284;19;20015;-77
2023/12/12 02:58:58;;;;;;;4.30;2.65;;;18.00;99.90;;;;;;4593194;19;20002;-77
2023/12/12 03:00:34;;;;;;;4.03;2.42;;;18.00;99.90;;;;;;4593686;19;20036;-77
2023/12/12 03:02:09;;;;;;;3.95;2.55;;;18.10;99.90;;;;;;4593467;19;19995;-77
2023/12/12 03:03:44;;;;;;;3.72;2.47;;;18.00;99.90;;;;;;4594462;19;20009;-77
2023/12/12 03:05:19;;;;;;;4.10;3.03;;;18.00;99.90;;;;;;4594466;19;20007;-77
2023/12/12 03:06:53;;;;;;;3.75;2.80;;;18.00;99.90;;;;;;4594361;19;20422;-77
2023/12/12 03:08:27;;;;;;;3.22;2.60;;;18.00;99.90;;;;;;4593302;19;20032;-77
2023/12/12 03:10:02;;;;;;;4.47;3.22;;;18.00;99.90;;;;;;4594296;19;20032;-77
2023/12/12 03:11:36;;;;;;;3.83;2.67;;;18.00;99.90;;;;;;4593881;19;20362;-77
2023/12/12 03:13:11;;;;;;;4.00;2.75;;;18.00;99.90;;;;;;4594226;19;20066;-77
2023/12/12 03:14:46;;;;;;;3.75;2.60;;;18.00;99.90;;;;;;4592776;19;20027;-77
2023/12/12 03:16:22;;;;;;;3.50;2.40;;;18.00;99.90;;;;;;4593795;19;20003;-77
2023/12/12 03:17:56;;;;;;;3.63;2.78;;;17.90;99.90;;;;;;4593113;19;20018;-77
2023/12/12 03:19:32;;;;;;;3.88;2.55;;;17.90;99.90;;;;;;4594202;19;20016;-77
2023/12/12 03:21:06;;;;;;;3.58;2.40;;;17.90;99.90;;;;;;4594105;19;20018;-77
2023/12/12 03:22:40;;;;;;;3.80;3.00;;;17.90;99.90;;;;;;4594378;19;20002;-77
2023/12/12 03:24:17;;;;;;;3.80;2.75;;;17.90;99.90;;;;;;4592733;19;20030;-77
2023/12/12 03:25:51;;;;;;;4.70;3.17;;;17.90;99.90;;;;;;4592579;19;20003;-77
2023/12/12 03:27:26;;;;;;;4.53;2.80;;;17.90;99.90;;;;;;4593256;19;20009;-77
2023/12/12 03:29:02;;;;;;;3.80;2.75;;;17.90;99.90;;;;;;4593996;19;20014;-77
2023/12/12 03:30:37;;;;;;;3.45;2.22;;;17.90;99.90;;;;;;4593882;19;20006;-77
2023/12/12 03:32:11;;;;;;;4.75;2.95;;;17.90;99.90;;;;;;4592778;19;20003;-77
2023/12/12 03:33:47;;;;;;;4.05;2.20;;;17.90;99.90;;;;;;4594318;19;20006;-77
2023/12/12 03:35:22;;;;;;;5.03;2.30;;;17.90;99.90;;;;;;4594080;19;20027;-77
2023/12/12 03:36:57;;;;;;;3.28;2.65;;;17.80;99.90;;;;;;4594051;19;20015;-77
2023/12/12 03:38:33;;;;;;;4.57;2.60;;;17.90;99.90;;;;;;4592514;19;20430;-77
2023/12/12 03:40:08;;;;;;;3.80;2.83;;;17.80;99.90;;;;;;4592575;19;19999;-77
2023/12/12 03:41:44;;;;;;;3.72;2.65;;;17.80;99.90;;;;;;4593565;19;20027;-79
2023/12/12 03:43:20;;;;;;;3.83;2.72;;;17.80;99.90;;;;;;4593948;19;20025;-77
2023/12/12 03:44:54;;;;;;;3.63;2.55;;;17.80;99.90;;;;;;4593627;19;20006;-77
2023/12/12 03:46:28;;;;;;;3.75;2.30;;;17.80;99.90;;;;;;4593808;19;20069;-77
2023/12/12 03:48:05;;;;;;;4.32;2.42;;;17.80;99.90;;;;;;4592812;19;20104;-77
2023/12/12 03:49:39;;;;;;;4.07;2.60;;;17.80;99.90;;;;;;4593466;19;20027;-77
2023/12/12 03:51:13;;;;;;;3.85;2.55;;;17.80;99.90;;;;;;4593177;19;20074;-77
2023/12/12 03:52:48;;;;;;;3.70;2.47;;;17.80;99.90;;;;;;4593784;19;20027;-77
2023/12/12 03:54:22;;;;;;;3.53;2.65;;;17.80;99.90;;;;;;4593414;19;20002;-77
2023/12/12 03:55:56;;;;;;;3.63;2.35;;;17.80;99.90;;;;;;4593369;19;20015;-77
2023/12/12 03:57:33;;;;;;;3.17;2.40;;;17.80;99.90;;;;;;4593309;19;20381;-77
2023/12/12 03:59:08;;;;;;;4.10;2.60;;;17.80;99.90;;;;;;4593570;19;20007;-77
2023/12/12 04:00:43;;;;;;;3.20;2.30;;;17.80;99.90;;;;;;4593210;19;20045;-77
2023/12/12 04:02:19;;;;;;;3.53;2.55;;;17.80;99.90;;;;;;4593275;19;20070;-77
2023/12/12 04:03:55;;;;;;;3.95;2.80;;;17.80;99.90;;;;;;4593254;19;20291;-77
2023/12/12 04:05:29;;;;;;;3.88;2.58;;;17.70;99.90;;;;;;4593105;19;20015;-77
2023/12/12 04:07:04;;;;;;;3.90;2.45;;;17.80;99.90;;;;;;4593171;19;20061;-77
2023/12/12 04:08:38;;;;;;;3.45;2.78;;;17.70;99.90;;;;;;4590539;19;20006;-77
2023/12/12 04:10:13;;;;;;;3.97;2.25;;;17.70;99.90;;;;;;4592735;19;20005;-77
2023/12/12 04:11:49;;;;;;;3.45;2.17;;;17.70;99.90;;;;;;4592325;19;20101;-77
2023/12/12 04:13:23;;;;;;;2.97;2.03;;;17.70;99.90;;;;;;4592908;19;20014;-77
2023/12/12 04:14:57;;;;;;;3.78;2.78;;;17.70;99.90;;;;;;4592948;19;20372;-77
2023/12/12 04:16:33;;;;;;;3.38;2.38;;;17.70;99.90;;;;;;4593058;19;20014;-77
2023/12/12 04:18:07;;;;;;;3.25;2.20;;;17.70;99.90;;;;;;4591843;19;20021;-77
2023/12/12 04:19:41;;;;;;;4.03;2.38;;;17.70;99.90;;;;;;4592836;19;20007;-77
2023/12/12 04:21:18;;;;;;;3.88;2.67;;;17.70;99.90;;;;;;4593183;19;20007;-77
2023/12/12 04:22:52;;;;;;;3.47;2.67;;;17.70;99.90;;;;;;4593091;19;20324;-77
2023/12/12 04:24:27;;;;;;;3.63;2.80;;;17.70;99.90;;;;;;4592693;19;20007;-77
2023/12/12 04:26:03;;;;;;;2.63;2.13;;;17.70;99.90;;;;;;4592799;19;20018;-77
2023/12/12 04:27:37;;;;;;;3.38;2.22;;;17.60;99.90;;;;;;4592315;19;20003;-77
2023/12/12 04:29:11;;;;;;;3.55;2.80;;;17.70;99.90;;;;;;4592658;19;20010;-77
2023/12/12 04:30:47;;;;;;;3.08;2.08;;;17.60;99.90;;;;;;4592754;19;20304;-77
2023/12/12 04:32:23;;;;;;;3.70;2.47;;;17.60;99.90;;;;;;4591647;19;20006;-77
2023/12/12 04:33:57;;;;;;;4.13;3.00;;;17.60;99.90;;;;;;4592541;19;20428;-77
2023/12/12 04:35:32;;;;;;;3.28;2.45;;;17.60;99.90;;;;;;4592619;19;20012;-77
2023/12/12 04:37:07;;;;;;;4.22;2.53;;;17.60;99.90;;;;;;4592765;19;20002;-77
2023/12/12 04:38:42;;;;;;;3.80;2.40;;;17.60;99.90;;;;;;4591418;19;20036;-77
2023/12/12 04:40:18;;;;;;;4.13;2.60;;;17.60;99.90;;;;;;4591147;19;20032;-77
2023/12/12 04:41:57;;;;;;;3.65;2.45;;;17.70;99.90;;;;;;4591147;19;20017;-77
2023/12/12 04:43:31;;;;;;;2.08;1.38;;;17.60;99.90;;;;;;4592628;19;20343;-78
2023/12/12 04:45:08;;;;;;;11.90;10.00;;;17.10;99.90;;;;;;4592856;19;20010;-77
2023/12/12 04:46:43;;;;;;;14.27;10.95;;;16.70;99.90;;;;;;4592349;19;20003;-76
2023/12/12 04:48:17;;;;;;;12.73;10.10;;;16.30;99.90;;;;;;4590158;19;20474;-77
2023/12/12 04:49:52;;;;;;;14.57;11.50;;;16.00;99.90;;;;;;4591995;19;20006;-79
2023/12/12 04:51:26;;;;;;;14.15;10.52;;;15.80;99.90;;;;;;4591916;19;20010;-77
2023/12/12 04:53:00;;;;;;;13.82;11.50;;;15.70;99.90;;;;;;4592244;19;20009;-77
2023/12/12 04:54:36;;;;;;;12.38;10.68;;;15.70;99.90;;;;;;4592730;19;20009;-77
2023/12/12 04:56:11;;;;;;;12.65;10.63;;;15.70;99.90;;;;;;4592407;19;20003;-78
2023/12/12 04:57:46;;;;;;;13.35;11.65;;;15.70;99.90;;;;;;4591581;19;20461;-77
2023/12/12 04:59:22;;;;;;;12.27;10.70;;;15.70;99.90;;;;;;4591081;19;20017;-77
2023/12/12 05:00:57;;;;;;;13.32;11.00;;;15.80;99.90;;;;;;4592042;19;20009;-77
2023/12/12 05:02:31;;;;;;;14.77;11.90;;;15.80;99.90;;;;;;4592142;19;19994;-77
2023/12/12 05:04:07;;;;;;;14.35;11.02;;;15.90;99.90;;;;;;4592155;19;20078;-77
2023/12/12 05:05:41;;;;;;;12.98;11.23;;;15.90;99.90;;;;;;4592013;19;20006;-77
2023/12/12 05:07:16;;;;;;;14.02;11.23;;;16.00;99.90;;;;;;4591858;19;20006;-77
2023/12/12 05:08:52;;;;;;;13.93;11.18;;;16.00;99.90;;;;;;4592325;19;20363;-77
2023/12/12 05:10:27;;;;;;;13.25;11.45;;;16.10;99.90;;;;;;4591982;19;20015;-76
2023/12/12 05:12:02;;;;;;;13.55;11.52;;;16.10;99.90;;;;;;4591137;19;19998;-76
2023/12/12 05:13:37;;;;;;;13.40;11.55;;;16.10;99.90;;;;;;4590914;19;20298;-76
2023/12/12 05:15:11;;;;;;;15.98;12.60;;;16.10;99.90;;;;;;4590550;19;20007;-80
2023/12/12 05:16:45;;;;;;;13.07;11.35;;;16.20;99.90;;;;;;4590773;19;20441;-77
2023/12/12 05:18:21;;;;;;;14.38;12.23;;;16.20;99.90;;;;;;4590292;19;20019;-77
2023/12/12 05:19:55;;;;;;;14.52;11.30;;;16.20;99.90;;;;;;4591855;19;20328;-76
2023/12/12 05:21:31;;;;;;;13.35;11.52;;;16.30;99.90;;;;;;4591798;19;20010;-77
2023/12/12 05:23:07;;;;;;;14.93;11.80;;;16.20;99.90;;;;;;4590433;19;20007;-77
2023/12/12 05:24:42;;;;;;;15.75;12.07;;;16.20;99.90;;;;;;4593926;19;20435;-76
2023/12/12 05:26:18;;;;;;;15.00;12.25;;;16.10;99.90;;;;;;4596440;19;19998;-77
2023/12/12 05:27:53;;;;;;;15.23;12.40;;;16.10;99.90;;;;;;4595798;19;20015;-77
2023/12/12 05:29:29;;;;;;;13.00;10.68;;;16.10;99.90;;;;;;4594894;19;20010;-77
2023/12/12 05:31:03;;;;;;;14.15;11.40;;;16.00;99.90;;;;;;4595744;19;20006;-79
2023/12/12 05:32:39;;;;;;;13.27;11.88;;;16.00;99.90;;;;;;4596354;19;20007;-79
2023/12/12 05:34:13;;;;;;;15.10;12.45;;;15.90;99.90;;;;;;4596261;19;20006;-79
2023/12/12 05:35:48;;;;;;;12.48;10.65;;;15.90;99.90;;;;;;4596234;19;19999;-80
2023/12/12 05:37:23;;;;;;;15.65;11.95;;;15.90;99.90;;;;;;4595891;19;20010;-78
2023/12/12 05:38:58;;;;;;;16.10;11.88;;;15.90;99.90;;;;;;4596349;19;19998;-77
2023/12/12 05:40:32;;;;;;;15.70;12.20;;;15.80;99.90;;;;;;4596086;19;20006;-76
2023/12/12 05:42:07;;;;;;;15.48;12.35;;;15.80;99.90;;;;;;4596151;19;20418;-76
2023/12/12 05:43:42;;;;;;;13.45;11.52;;;15.80;99.90;;;;;;4596108;19;20006;-79
2023/12/12 05:45:17;;;;;;;14.05;12.20;;;15.70;99.90;;;;;;4595997;19;20002;-76
2023/12/12 05:46:53;;;;;;;15.98;12.18;;;15.70;99.90;;;;;;4596065;19;20074;-76
2023/12/12 05:48:28;;;;;;;14.75;12.02;;;15.70;99.90;;;;;;4594649;19;20418;-76
2023/12/12 05:50:02;;;;;;;14.48;11.77;;;15.60;99.90;;;;;;4594837;19;20003;-76
2023/12/12 05:51:39;;;;;;;14.40;12.27;;;15.60;99.90;;;;;;4593914;19;20426;-76
2023/12/12 05:53:14;;;;;;;15.13;12.30;;;15.60;99.90;;;;;;4595533;19;20015;-76
2023/12/12 05:54:48;;;;;;;15.00;12.20;;;15.60;99.90;;;;;;4595909;19;20478;-76
2023/12/12 05:56:24;;;;;;;15.80;12.98;;;15.60;99.90;;;;;;4595866;19;20071;-76
2023/12/12 05:58:00;;;;;;;16.98;12.93;;;15.50;99.90;;;;;;4594711;19;20003;-76
2023/12/12 05:59:34;;;;;;;15.95;12.52;;;15.50;99.90;;;;;;4595771;19;20002;-76
2023/12/12 06:01:09;;;;;;;15.43;12.43;;;15.50;99.90;;;;;;4595802;19;20430;-74
2023/12/12 06:02:44;;;;;;;15.18;11.80;;;15.50;99.90;;;;;;4595677;19;20003;-78
2023/12/12 06:04:19;;;;;;;16.27;13.93;;;15.50;99.90;;;;;;4595592;19;20010;-75
2023/12/12 06:05:56;;;;;;;15.63;12.65;;;15.40;99.90;;;;;;4595680;19;20023;-76
2023/12/12 06:07:30;;;;;;;14.90;12.68;;;15.40;99.90;;;;;;4595435;19;20448;-75
2023/12/12 06:09:05;;;;;;;15.80;13.07;;;15.40;99.90;;;;;;4595558;19;19998;-76
2023/12/12 06:10:40;;;;;;;14.85;12.13;;;15.40;99.90;;;;;;4595581;19;20027;-76
2023/12/12 06:12:17;;;;;;;20.25;15.65;;;15.50;99.90;;;;;;4594278;19;20002;-76
2023/12/12 06:13:51;;;;;;;19.00;15.43;;;15.50;99.90;;;;;;4595551;19;20011;-76
2023/12/12 06:15:27;;;;;;;19.00;15.75;;;15.70;99.90;;;;;;4595409;19;20018;-77
2023/12/12 06:17:02;;;;;;;19.83;16.02;;;15.80;99.90;;;;;;4595403;19;20002;-76
2023/12/12 06:18:36;;;;;;;20.20;15.75;;;15.90;99.90;;;;;;4593745;19;20018;-76
2023/12/12 06:20:13;;;;;;;20.20;16.13;;;16.00;99.90;;;;;;4595423;19;20006;-75
2023/12/12 06:21:51;;;;;;;18.98;15.70;;;16.10;99.90;;;;;;4595253;19;20006;-75
2023/12/12 06:23:30;;;;;;;18.98;16.67;;;16.20;99.90;;;;;;4595274;19;20017;-75
2023/12/12 06:25:08;;;;;;;22.90;16.90;;;16.30;99.90;;;;;;4595250;19;20030;-75
2023/12/12 06:26:43;;;;;;;20.33;17.40;;;16.40;99.90;;;;;;4593741;19;20407;-75
2023/12/12 06:28:17;;;;;;;21.73;16.15;;;16.40;99.90;;;;;;4593667;19;20402;-75
2023/12/12 06:29:52;;;;;;;19.25;16.52;;;16.50;99.90;;;;;;4595235;19;20013;-75
2023/12/12 06:31:27;;;;;;;19.40;14.88;;;16.50;99.90;;;;;;4594664;19;19998;-76
2023/12/12 06:33:01;;;;;;;18.80;16.70;;;16.60;99.90;;;;;;4595296;19;20006;-75
2023/12/12 06:34:36;;;;;;;20.30;16.92;;;16.60;99.90;;;;;;4595170;19;20011;-75
2023/12/12 06:36:11;;;;;;;21.92;17.88;;;16.70;99.90;;;;;;4591049;19;19998;-75
2023/12/12 06:37:44;;;;;;;23.60;18.65;;;16.70;99.90;;;;;;4593930;19;20009;-76
2023/12/12 06:39:20;;;;;;;20.60;17.02;;;16.70;99.90;;;;;;4593646;19;20070;-74
2023/12/12 06:40:54;;;;;;;21.65;17.13;;;16.70;99.90;;;;;;4594538;19;20448;-74
2023/12/12 06:42:28;;;;;;;24.58;20.05;;;16.70;99.90;;;;;;4594857;19;20007;-75
2023/12/12 06:44:04;;;;;;;24.63;18.75;;;16.70;99.90;;;;;;4594898;19;20296;-75
2023/12/12 06:45:38;;;;;;;30.02;20.75;;;16.70;99.90;;;;;;4593418;19;20010;-75
2023/12/12 06:47:13;;;;;;;27.98;22.77;;;16.70;99.90;;;;;;4594282;19;20434;-75
2023/12/12 06:48:50;;;;;;;29.67;22.63;;;16.70;99.90;;;;;;4595062;19;20011;-75
2023/12/12 06:50:24;;;;;;;28.98;22.77;;;16.70;99.90;;;;;;4594691;19;20003;-76
2023/12/12 06:52:01;;;;;;;32.10;24.10;;;16.60;99.90;;;;;;4594027;19;20002;-75
2023/12/12 06:53:37;;;;;;;39.35;29.33;;;16.60;99.90;;;;;;4594942;19;20341;-76
2023/12/12 06:55:11;;;;;;;37.90;29.50;;;16.50;99.90;;;;;;4594629;19;20002;-76
2023/12/12 06:56:47;;;;;;;32.17;25.13;;;16.50;99.90;;;;;;4594835;19;20318;-74
2023/12/12 06:58:24;;;;;;;31.42;24.58;;;16.50;99.90;;;;;;4593339;19;20429;-76
2023/12/12 06:59:58;;;;;;;30.15;25.98;;;16.40;99.90;;;;;;4594565;19;20032;-78
2023/12/12 07:01:34;;;;;;;54.67;49.28;;;16.40;99.90;;;;;;4594368;19;20014;-76
2023/12/12 07:03:13;;;;;;;48.13;43.13;;;16.40;99.90;;;;;;4594714;19;20426;-74
2023/12/12 07:04:47;;;;;;;36.88;33.00;;;16.30;99.90;;;;;;4594647;19;20002;-73
2023/12/12 07:06:22;;;;;;;34.85;30.95;;;16.30;99.90;;;;;;4594610;19;20346;-73
2023/12/12 07:07:58;;;;;;;31.73;26.83;;;16.20;99.90;;;;;;4593615;19;20066;-75
2023/12/12 07:09:33;;;;;;;28.42;22.02;;;16.20;99.90;;;;;;4594287;19;20027;-77
2023/12/12 07:11:08;;;;;;;26.83;19.27;;;16.20;99.90;;;;;;4594320;19;20015;-78
2023/12/12 07:12:44;;;;;;;24.58;21.02;;;16.20;99.90;;;;;;4594607;19;20066;-78
2023/12/12 07:14:18;;;;;;;23.27;18.85;;;16.10;99.90;;;;;;4594242;19;19999;-78
2023/12/12 07:15:52;;;;;;;23.75;18.17;;;16.10;99.90;;;;;;4594195;19;20002;-77
2023/12/12 07:17:28;;;;;;;20.33;16.80;;;16.10;99.90;;;;;;4593698;19;20069;-76
2023/12/12 07:19:03;;;;;;;19.42;15.45;;;16.00;99.90;;;;;;4594482;19;20465;-74
2023/12/12 07:20:38;;;;;;;22.10;17.38;;;16.00;99.90;;;;;;4594887;19;20425;-73
2023/12/12 07:22:14;;;;;;;18.70;16.70;;;16.00;99.90;;;;;;4594120;19;20003;-73
2023/12/12 07:23:49;;;;;;;19.67;16.27;;;16.00;99.90;;;;;;4592503;19;20095;-73
2023/12/12 07:25:22;;;;;;;20.35;17.30;;;16.00;99.90;;;;;;4593564;19;20009;-75
2023/12/12 07:26:58;;;;;;;20.30;16.65;;;15.90;99.90;;;;;;4594688;19;20019;-74
2023/12/12 07:28:33;;;;;;;19.17;15.80;;;15.90;99.90;;;;;;4592626;19;20032;-74
2023/12/12 07:30:10;;;;;;;20.13;16.40;;;15.90;99.90;;;;;;4592806;19;20280;-74
2023/12/12 07:31:47;;;;;;;18.75;15.45;;;15.80;99.90;;;;;;4593063;19;20003;-73
2023/12/12 07:33:21;;;;;;;19.33;16.30;;;15.80;99.90;;;;;;4592732;19;20007;-75
2023/12/12 07:34:56;;;;;;;21.25;16.52;;;15.80;99.90;;;;;;4593406;19;20315;-75
2023/12/12 07:36:31;;;;;;;20.90;16.60;;;15.80;99.90;;;;;;4593853;19;20013;-75
2023/12/12 07:38:07;;;;;;;21.52;16.38;;;15.80;99.90;;;;;;4592837;19;20002;-75
2023/12/12 07:39:42;;;;;;;21.40;16.67;;;15.80;99.90;;;;;;4593650;19;20445;-76
2023/12/12 07:41:19;;;;;;;21.30;17.58;;;15.70;99.90;;;;;;4593724;19;20351;-76
2023/12/12 07:42:53;;;;;;;24.20;17.48;;;15.70;99.90;;;;;;4593855;19;20003;-76
2023/12/12 07:44:27;;;;;;;21.88;17.65;;;15.70;99.90;;;;;;4593556;19;20073;-76
2023/12/12 07:46:02;;;;;;;23.67;19.13;;;15.70;99.90;;;;;;4593599;19;20007;-76
2023/12/12 07:47:36;;;;;;;19.10;16.30;;;15.60;99.90;;;;;;4592555;19;20323;-75
2023/12/12 07:49:11;;;;;;;24.15;19.38;;;15.60;99.90;;;;;;4592157;19;20066;-75
2023/12/12 07:50:46;;;;;;;21.88;18.35;;;15.60;99.90;;;;;;4592139;19;20010;-75
2023/12/12 07:52:21;;;;;;;20.58;16.58;;;15.60;99.90;;;;;;4592068;19;20430;-74
2023/12/12 07:53:56;;;;;;;22.83;18.27;;;15.60;99.90;;;;;;4592297;19;20002;-79
2023/12/12 07:55:32;;;;;;;19.98;16.25;;;15.60;99.90;;;;;;4593092;19;20030;-76
2023/12/12 07:57:06;;;;;;;19.63;16.48;;;15.50;99.90;;;;;;4593327;19;20094;-76
2023/12/12 07:58:40;;;;;;;20.67;16.75;;;15.50;99.90;;;;;;4590731;19;20009;-76
2023/12/12 08:00:16;;;;;;;21.15;17.70;;;15.50;99.90;;;;;;4593066;19;20373;-74
2023/12/12 08:01:50;;;;;;;21.83;17.95;;;15.50;99.90;;;;;;4593234;19;20006;-76
2023/12/12 08:03:27;;;;;;;20.73;17.85;;;15.50;99.90;;;;;;4593222;19;20095;-75
2023/12/12 08:05:03;;;;;;;23.02;19.70;;;15.50;99.90;;;;;;4593216;19;20036;-76
2023/12/12 08:06:39;;;;;;;24.33;20.17;;;15.50;99.90;;;;;;4593162;19;19999;-76
2023/12/12 08:08:14;;;;;;;27.48;23.88;;;15.50;99.90;;;;;;4592188;19;20042;-76
2023/12/12 08:09:49;;;;;;;26.90;22.08;;;15.40;99.90;;;;;;4593392;19;20295;-76
2023/12/12 08:11:27;;;;;;;25.88;20.70;;;15.40;99.90;;;;;;4591511;19;19999;-78
2023/12/12 08:13:03;;;;;;;27.83;22.45;;;15.40;99.90;;;;;;4592761;19;20003;-78
2023/12/12 08:14:39;;;;;;;26.95;20.50;;;15.40;99.90;;;;;;4593042;19;20031;-78
2023/12/12 08:16:15;;;;;;;24.77;21.00;;;15.40;99.90;;;;;;4592947;19;19994;-79
2023/12/12 08:17:49;;;;;;;26.45;22.83;;;15.40;99.90;;;;;;4592167;19;20368;-74
2023/12/12 08:19:25;;;;;;;29.10;23.83;;;15.40;99.90;;;;;;4592964;19;20013;-75
2023/12/12 08:20:59;;;;;;;29.08;24.60;;;15.40;99.90;;;;;;4592833;19;20031;-74
2023/12/12 08:22:34;;;;;;;23.52;19.88;;;15.40;99.90;;;;;;4593071;19;20019;-74
2023/12/12 08:24:10;;;;;;;22.73;18.95;;;15.40;99.90;;;;;;4592856;19;20014;-75
2023/12/12 08:25:44;;;;;;;24.90;21.23;;;15.40;99.90;;;;;;4593040;19;20033;-75
2023/12/12 08:27:18;;;;;;;23.77;19.48;;;15.40;99.90;;;;;;4592583;19;20373;-77